createdAt,value
2018-12-10T00:01:09.216Z,54.97
2018-12-10T00:03:37.203Z,52.80
2018-12-10T00:06:04.773Z,55.10
2018-12-10T00:08:32.594Z,55.60
2018-12-10T00:11:00.405Z,56.10
2018-12-10T00:13:28.409Z,56.10
2018-12-10T00:15:55.949Z,55.50
2018-12-10T00:18:23.503Z,57.93
2018-12-10T00:20:51.027Z,59.30
2018-12-10T00:23:18.551Z,58.63
2018-12-10T00:25:46.379Z,57.60
2018-12-10T00:28:13.925Z,59.70
2018-12-10T00:30:41.453Z,62.13
2018-12-10T00:33:09.044Z,61.97
2018-12-10T00:35:37.460Z,59.87
2018-12-10T00:38:04.988Z,57.50
2018-12-10T00:40:32.773Z,56.93
2018-12-10T00:43:00.312Z,55.33
2018-12-10T00:45:27.835Z,61.37
2018-12-10T00:47:55.655Z,54.83
2018-12-10T00:50:23.200Z,57.60
2018-12-10T00:52:50.841Z,60.73
2018-12-10T00:55:18.407Z,60.27
2018-12-10T00:57:46.572Z,57.33
2018-12-10T01:00:14.129Z,57.10
2018-12-10T01:02:41.939Z,53.77
2018-12-10T01:05:09.485Z,53.80
2018-12-10T01:07:37.012Z,54.20
2018-12-10T01:10:05.243Z,54.00
2018-12-10T01:12:32.777Z,52.77
2018-12-10T01:15:00.317Z,53.87
2018-12-10T01:17:27.878Z,46.50
2018-12-10T01:19:55.421Z,52.60
2018-12-10T01:22:22.974Z,51.50
2018-12-10T01:24:50.809Z,55.80
2018-12-10T01:27:18.379Z,56.13
2018-12-10T01:29:45.919Z,53.80
2018-12-10T01:32:13.792Z,61.30
2018-12-10T01:34:41.321Z,66.07
2018-12-10T01:37:08.854Z,61.87
2018-12-10T01:39:36.683Z,63.70
2018-12-10T01:42:04.222Z,56.27
2018-12-10T01:44:31.759Z,63.83
2018-12-10T01:46:59.321Z,63.47
2018-12-10T01:49:26.864Z,70.17
2018-12-10T01:51:54.383Z,67.00
2018-12-10T01:54:22.264Z,63.87
2018-12-10T01:56:49.789Z,68.10
2018-12-10T01:59:17.316Z,63.67
2018-12-10T02:01:44.869Z,64.57
2018-12-10T02:04:12.440Z,62.47
2018-12-10T02:06:40.101Z,58.53
2018-12-10T02:09:08.038Z,66.10
2018-12-10T02:11:35.564Z,60.90
2018-12-10T02:14:03.332Z,58.17
2018-12-10T02:16:30.881Z,58.30
2018-12-10T02:18:58.407Z,65.00
2018-12-10T02:21:26.017Z,62.07
2018-12-10T02:23:53.896Z,65.40
2018-12-10T02:26:21.418Z,59.83
2018-12-10T02:28:54.762Z,55.17
2018-12-10T02:31:22.317Z,65.90
2018-12-10T02:33:49.831Z,58.97
2018-12-10T02:36:17.857Z,66.60
2018-12-10T02:38:45.412Z,64.93
2018-12-10T02:41:12.945Z,61.53
2018-12-10T02:43:40.737Z,68.40
2018-12-10T02:46:08.317Z,59.10
2018-12-10T02:48:35.836Z,57.97
2018-12-10T02:51:03.619Z,61.13
2018-12-10T02:53:31.136Z,60.07
2018-12-10T02:55:58.665Z,61.60
2018-12-10T02:58:26.295Z,63.17
2018-12-10T03:00:53.809Z,58.20
2018-12-10T03:03:21.329Z,63.10
2018-12-10T03:05:49.010Z,58.30
2018-12-10T03:08:16.580Z,63.80
2018-12-10T03:10:44.115Z,63.43
2018-12-10T03:13:11.995Z,61.47
2018-12-10T03:15:39.540Z,63.60
2018-12-10T03:18:07.082Z,61.83
2018-12-10T03:20:35.054Z,58.00
2018-12-10T03:23:02.591Z,58.43
2018-12-10T03:25:30.130Z,60.93
2018-12-10T03:27:57.706Z,68.33
2018-12-10T03:30:25.250Z,68.23
2018-12-10T03:32:52.765Z,67.73
2018-12-10T03:35:20.341Z,72.43
2018-12-10T03:37:47.877Z,72.47
2018-12-10T03:40:15.418Z,73.97
2018-12-10T03:42:43.002Z,69.23
2018-12-10T03:45:10.530Z,63.47
2018-12-10T03:47:38.083Z,70.93
2018-12-10T03:50:06.941Z,74.23
2018-12-10T03:52:34.464Z,73.10
2018-12-10T03:55:01.983Z,70.07
2018-12-10T03:57:29.893Z,75.80
2018-12-10T03:59:57.414Z,77.07
2018-12-10T04:02:24.947Z,70.00
2018-12-10T04:04:52.686Z,74.00
2018-12-10T04:07:20.213Z,74.87
2018-12-10T04:09:47.755Z,77.10
2018-12-10T04:12:15.608Z,75.87
2018-12-10T04:14:43.131Z,76.33
2018-12-10T04:17:10.679Z,70.20
2018-12-10T04:19:38.252Z,73.23
2018-12-10T04:22:05.793Z,71.83
2018-12-10T04:24:33.335Z,66.77
2018-12-10T04:27:00.920Z,72.47
2018-12-10T04:29:28.461Z,72.03
2018-12-10T04:31:55.995Z,82.57
2018-12-10T04:34:23.840Z,85.13
2018-12-10T04:36:51.613Z,88.27
2018-12-10T04:39:19.160Z,91.73
2018-12-10T04:41:47.046Z,80.73
2018-12-10T04:44:14.635Z,88.10
2018-12-10T04:46:42.177Z,78.40
2018-12-10T04:49:09.967Z,81.10
2018-12-10T04:51:37.512Z,85.07
2018-12-10T04:54:05.041Z,92.03
2018-12-10T04:56:32.903Z,91.23
2018-12-10T04:59:01.014Z,89.97
2018-12-10T05:01:28.621Z,94.00
2018-12-10T05:03:56.184Z,96.13
2018-12-10T05:06:23.735Z,97.77
2018-12-10T05:08:51.257Z,101.10
2018-12-10T05:11:19.080Z,91.40
2018-12-10T05:13:46.642Z,94.33
2018-12-10T05:16:14.201Z,90.37
2018-12-10T05:18:42.197Z,88.70
2018-12-10T05:21:09.752Z,91.53
2018-12-10T05:23:37.290Z,87.57
2018-12-10T05:26:04.842Z,80.70
2018-12-10T05:28:32.415Z,82.40
2018-12-10T05:30:59.944Z,80.47
2018-12-10T05:33:27.513Z,72.30
2018-12-10T05:35:55.047Z,77.13
2018-12-10T05:38:22.578Z,89.77
2018-12-10T05:40:50.436Z,85.30
2018-12-10T05:43:17.955Z,85.23
2018-12-10T05:45:45.545Z,86.50
2018-12-10T05:48:13.653Z,84.63
2018-12-10T05:50:41.177Z,88.20
2018-12-10T05:53:08.742Z,84.00
2018-12-10T05:55:36.548Z,84.73
2018-12-10T05:58:04.063Z,88.00
2018-12-10T06:00:31.592Z,85.70
2018-12-10T06:02:59.411Z,84.43
2018-12-10T06:05:26.955Z,89.57
2018-12-10T06:07:54.554Z,93.70
2018-12-10T06:10:22.220Z,87.23
2018-12-10T06:12:49.742Z,83.57
2018-12-10T06:15:17.296Z,82.90
2018-12-10T06:17:45.147Z,91.30
2018-12-10T06:20:13.158Z,91.60
2018-12-10T06:22:40.676Z,93.10
2018-12-10T06:25:08.193Z,90.60
2018-12-10T06:27:36.122Z,85.87
2018-12-10T06:30:04.232Z,86.47
2018-12-10T06:32:31.762Z,90.93
2018-12-10T06:34:59.628Z,92.17
2018-12-10T06:37:27.507Z,80.60
2018-12-10T06:39:55.059Z,100.77
2018-12-10T06:42:22.597Z,103.30
2018-12-10T06:44:50.413Z,103.63
2018-12-10T06:47:17.944Z,105.90
2018-12-10T06:49:45.461Z,89.23
2018-12-10T06:52:13.308Z,86.33
2018-12-10T06:54:40.984Z,92.80
2018-12-10T06:57:08.505Z,91.23
2018-12-10T06:59:36.461Z,95.90
2018-12-10T07:02:04.372Z,86.30
2018-12-10T07:04:31.954Z,94.47
2018-12-10T07:06:59.525Z,101.93
2018-12-10T07:09:27.425Z,104.17
2018-12-10T07:11:54.952Z,111.80
2018-12-10T07:14:22.552Z,108.83
2018-12-10T07:16:50.418Z,114.73
2018-12-10T07:19:17.947Z,113.87
2018-12-10T07:21:45.489Z,120.53
2018-12-10T07:24:13.843Z,126.87
2018-12-10T07:26:41.381Z,126.20
2018-12-10T07:29:09.272Z,119.77
2018-12-10T07:31:36.908Z,124.73
2018-12-10T07:34:04.802Z,106.37
2018-12-10T07:36:32.876Z,119.23
2018-12-10T07:39:00.922Z,112.07
2018-12-10T07:41:28.585Z,112.00
2018-12-10T07:43:56.757Z,117.87
2018-12-10T07:46:24.283Z,121.20
2018-12-10T07:48:51.871Z,120.93
2018-12-10T07:51:19.433Z,109.00
2018-12-10T07:53:46.972Z,103.20
2018-12-10T07:56:14.664Z,99.93
2018-12-10T07:58:42.206Z,119.67
2018-12-10T08:01:10.016Z,120.43
2018-12-10T08:03:37.544Z,128.93
2018-12-10T08:06:05.075Z,89.33
2018-12-10T08:08:32.895Z,63.43
2018-12-10T08:11:00.440Z,54.93
2018-12-10T08:13:27.962Z,66.60
2018-12-10T08:15:55.866Z,47.27
2018-12-10T08:18:23.855Z,42.73
2018-12-10T08:20:51.694Z,40.57
2018-12-10T08:23:19.229Z,41.33
2018-12-10T08:25:46.748Z,37.33
2018-12-10T08:28:14.640Z,45.30
2018-12-10T08:30:42.160Z,104.80
2018-12-10T08:33:09.867Z,68.27
2018-12-10T08:35:40.939Z,150.60
2018-12-10T08:38:06.982Z,53.83
2018-12-10T08:40:34.535Z,35.10
2018-12-10T08:43:02.062Z,27.73
2018-12-10T08:45:29.635Z,32.67
2018-12-10T08:47:57.521Z,138.93
2018-12-10T08:50:25.069Z,87.00
2018-12-10T08:52:53.344Z,46.57
2018-12-10T08:55:21.012Z,45.90
2018-12-10T08:57:48.550Z,26.77
2018-12-10T09:00:16.333Z,27.03
2018-12-10T09:02:43.870Z,23.47
2018-12-10T09:05:11.448Z,24.47
2018-12-10T09:07:39.250Z,26.47
2018-12-10T09:10:07.228Z,46.43
2018-12-10T09:12:34.863Z,159.70
2018-12-10T09:15:02.743Z,93.30
2018-12-10T09:17:30.309Z,172.07
2018-12-10T09:19:57.875Z,57.30
2018-12-10T09:22:25.790Z,67.10
2018-12-10T09:24:53.317Z,28.43
2018-12-10T09:27:20.932Z,24.93
2018-12-10T09:29:48.947Z,29.80
2018-12-10T09:32:16.502Z,32.13
2018-12-10T09:34:44.038Z,26.63
2018-12-10T09:37:11.900Z,39.67
2018-12-10T09:39:39.452Z,46.77
2018-12-10T09:42:07.013Z,41.43
2018-12-10T09:44:34.798Z,46.97
2018-12-10T09:47:02.451Z,46.70
2018-12-10T09:49:29.958Z,63.43
2018-12-10T09:51:58.075Z,66.23
2018-12-10T09:54:25.595Z,45.73
2018-12-10T09:56:53.215Z,50.80
2018-12-10T09:59:20.745Z,51.80
2018-12-10T10:01:48.302Z,49.80
2018-12-10T10:04:16.092Z,70.33
2018-12-10T10:06:43.973Z,53.07
2018-12-10T10:09:11.719Z,32.87
2018-12-10T10:11:39.610Z,50.37
2018-12-10T10:14:07.470Z,38.67
2018-12-10T10:16:35.629Z,45.40
2018-12-10T10:19:03.141Z,33.17
2018-12-10T10:21:30.714Z,29.63
2018-12-10T10:23:59.531Z,26.67
2018-12-10T10:26:27.300Z,24.23
2018-12-10T10:28:54.864Z,16.77
2018-12-10T10:31:22.563Z,20.90
2018-12-10T10:33:50.087Z,20.30
2018-12-10T10:36:17.604Z,19.50
2018-12-10T10:38:45.723Z,19.53
2018-12-10T10:41:13.422Z,20.00
2018-12-10T10:43:41.051Z,20.60
2018-12-10T10:46:08.933Z,19.53
2018-12-10T10:48:36.442Z,20.37
2018-12-10T10:51:04.087Z,25.20
2018-12-10T10:53:32.101Z,24.17
2018-12-10T10:55:59.898Z,20.30
2018-12-10T10:58:27.772Z,19.90
2018-12-10T11:01:00.921Z,20.63
2018-12-10T11:03:34.004Z,19.67
2018-12-10T11:06:01.891Z,20.37
2018-12-10T11:08:29.455Z,18.67
2018-12-10T11:10:56.972Z,16.90
2018-12-10T11:13:24.808Z,15.47
2018-12-10T11:15:52.368Z,12.60
2018-12-10T11:18:19.912Z,19.97
2018-12-10T11:20:48.022Z,16.20
2018-12-10T11:23:15.573Z,17.27
2018-12-10T11:25:43.488Z,18.87
2018-12-10T11:28:11.018Z,12.20
2018-12-10T11:30:38.628Z,11.70
2018-12-10T11:33:06.652Z,16.40
2018-12-10T11:35:34.193Z,19.90
2018-12-10T11:38:01.725Z,19.17
2018-12-10T11:40:29.690Z,19.63
2018-12-10T11:42:57.257Z,16.97
2018-12-10T11:45:24.832Z,19.13
2018-12-10T11:47:52.757Z,24.53
2018-12-10T11:50:20.690Z,16.20
2018-12-10T11:52:48.670Z,15.13
2018-12-10T11:55:16.287Z,21.07
2018-12-10T11:57:44.257Z,16.27
2018-12-10T12:00:11.776Z,34.55
2018-12-10T12:02:39.300Z,20.57
2018-12-10T12:05:07.157Z,16.67
2018-12-10T12:07:34.676Z,24.30
2018-12-10T12:10:02.317Z,23.07
2018-12-10T13:44:28.572Z,29.03
2018-12-10T13:46:56.684Z,28.70
2018-12-10T13:49:24.208Z,26.07
2018-12-10T13:51:51.758Z,27.30
2018-12-10T13:54:19.832Z,42.77
2018-12-10T13:56:47.906Z,36.93
2018-12-10T13:59:15.559Z,48.93
2018-12-10T14:01:43.079Z,35.57
2018-12-10T14:04:11.966Z,28.13
2018-12-10T14:06:40.596Z,33.23
2018-12-10T14:09:08.268Z,33.73
2018-12-10T14:11:35.823Z,29.67
2018-12-10T14:14:03.331Z,34.83
2018-12-10T14:16:30.857Z,25.57
2018-12-10T14:18:58.944Z,30.87
2018-12-10T14:21:26.481Z,35.10
2018-12-10T14:23:54.122Z,37.93
2018-12-10T14:26:21.941Z,42.87
2018-12-10T14:28:49.538Z,43.13
2018-12-10T14:31:17.052Z,35.97
2018-12-10T14:33:45.002Z,33.17
2018-12-10T14:36:12.524Z,27.47
2018-12-10T14:38:40.110Z,23.43
2018-12-10T14:41:07.901Z,27.60
2018-12-10T14:43:35.419Z,28.63
2018-12-10T14:46:03.008Z,23.20
2018-12-10T14:48:30.804Z,21.80
2018-12-10T14:50:58.318Z,24.30
2018-12-10T14:53:25.898Z,22.07
2018-12-10T14:55:53.762Z,25.20
2018-12-10T14:58:21.267Z,24.27
2018-12-10T15:00:48.886Z,19.83
2018-12-10T15:03:16.752Z,18.70
2018-12-10T15:05:44.536Z,21.50
2018-12-10T15:08:12.414Z,24.33
2018-12-10T15:10:39.993Z,16.80
2018-12-10T15:13:08.231Z,18.67
2018-12-10T15:15:35.814Z,17.20
2018-12-10T15:18:03.420Z,17.90
2018-12-10T15:20:31.357Z,19.40
2018-12-10T15:22:59.098Z,16.40
2018-12-10T15:25:26.854Z,14.20
2018-12-10T15:27:54.664Z,16.77
2018-12-10T15:30:22.213Z,16.67
2018-12-10T15:32:50.654Z,13.37
2018-12-10T15:35:18.631Z,16.93
2018-12-10T15:37:46.497Z,17.23
2018-12-10T15:40:14.292Z,30.20
2018-12-10T15:42:42.247Z,18.30
2018-12-10T15:45:09.816Z,18.77
2018-12-10T15:47:37.490Z,20.57
2018-12-10T15:50:05.149Z,22.10
2018-12-10T15:52:33.113Z,24.07
2018-12-10T15:55:00.663Z,26.73
2018-12-10T15:57:28.206Z,32.37
2018-12-10T15:59:56.322Z,33.40
2018-12-10T16:02:24.051Z,33.90
2018-12-10T16:04:51.607Z,35.57
2018-12-10T16:07:19.482Z,41.10
2018-12-10T16:09:47.138Z,29.20
2018-12-10T16:12:14.693Z,29.40
2018-12-10T16:14:42.362Z,30.50
2018-12-10T16:17:09.896Z,27.60
2018-12-10T16:19:37.424Z,40.10
2018-12-10T16:22:05.044Z,42.77
2018-12-10T16:24:32.602Z,42.93
2018-12-10T16:27:00.274Z,37.00
2018-12-10T16:29:27.944Z,38.37
2018-12-10T16:31:55.535Z,47.73
2018-12-10T16:34:23.129Z,53.63
2018-12-10T16:36:50.947Z,49.60
2018-12-10T16:39:18.463Z,50.50
2018-12-10T16:41:46.004Z,49.17
2018-12-10T16:44:14.016Z,46.07
2018-12-10T16:46:41.765Z,82.27
2018-12-10T16:49:09.284Z,75.70
2018-12-10T16:51:37.143Z,71.83
2018-12-10T16:54:04.769Z,68.13
2018-12-10T16:56:32.362Z,86.00
2018-12-10T16:59:00.320Z,72.50
2018-12-10T17:01:27.894Z,51.30
2018-12-10T17:03:55.447Z,27.87
2018-12-10T17:06:23.360Z,35.50
2018-12-10T17:08:51.004Z,21.60
2018-12-10T17:11:18.556Z,19.97
2018-12-10T17:13:47.153Z,15.43
2018-12-10T17:16:14.664Z,15.90
2018-12-10T17:18:42.214Z,18.13
2018-12-10T17:21:10.750Z,16.80
2018-12-10T17:23:38.316Z,21.63
2018-12-10T17:26:05.876Z,24.70
2018-12-10T17:28:33.503Z,30.87
2018-12-10T17:31:01.090Z,31.73
2018-12-10T17:33:28.629Z,25.20
2018-12-10T17:35:56.772Z,20.20
2018-12-10T17:38:24.387Z,22.07
2018-12-10T17:40:51.912Z,17.93
2018-12-10T17:43:19.466Z,19.20
2018-12-10T17:45:47.238Z,23.47
2018-12-10T17:48:15.141Z,19.37
2018-12-10T17:50:42.709Z,26.20
2018-12-10T17:53:10.267Z,28.93
2018-12-10T17:55:38.150Z,29.67
2018-12-10T17:58:05.696Z,33.00
2018-12-10T18:00:33.257Z,24.33
2018-12-10T18:03:00.881Z,20.43
2018-12-10T18:05:28.480Z,16.90
2018-12-10T18:07:56.039Z,14.17
2018-12-10T18:10:23.607Z,13.50
2018-12-10T18:12:51.164Z,16.57
2018-12-10T18:15:18.705Z,15.80
2018-12-10T18:17:46.617Z,21.13
2018-12-10T18:20:14.174Z,20.93
2018-12-10T18:22:41.697Z,16.90
2018-12-10T18:25:09.606Z,14.83
2018-12-10T18:27:37.130Z,15.70
2018-12-10T18:30:05.622Z,17.10
2018-12-10T18:32:33.519Z,18.00
2018-12-10T18:35:01.092Z,12.50
2018-12-10T18:37:29.305Z,12.40
2018-12-10T18:39:56.858Z,11.50
2018-12-10T18:42:24.480Z,16.83
2018-12-10T18:44:52.431Z,19.87
2018-12-10T18:47:19.989Z,20.30
2018-12-10T18:49:47.603Z,26.03
2018-12-10T18:52:15.579Z,23.00
2018-12-10T18:54:43.141Z,28.10
2018-12-10T18:57:10.704Z,24.10
2018-12-10T18:59:38.761Z,21.90
2018-12-10T19:02:06.282Z,24.57
2018-12-10T19:04:33.808Z,24.03
2018-12-10T19:07:01.592Z,17.80
2018-12-10T19:09:29.134Z,15.57
2018-12-10T19:11:56.682Z,11.03
2018-12-10T19:14:24.514Z,12.53
2018-12-10T19:16:52.039Z,11.60
2018-12-10T19:19:19.558Z,13.83
2018-12-10T19:21:47.249Z,12.60
2018-12-10T19:24:14.871Z,12.43
2018-12-10T19:26:42.401Z,15.93
2018-12-10T19:29:10.239Z,12.00
2018-12-10T19:31:37.759Z,14.33
2018-12-10T19:34:05.307Z,20.13
2018-12-10T19:36:33.448Z,19.47
2018-12-10T19:39:01.035Z,16.23
2018-12-10T19:41:28.656Z,18.53
2018-12-10T19:43:56.536Z,16.47
2018-12-10T19:46:24.126Z,13.30
2018-12-10T19:48:51.732Z,14.90
2018-12-10T19:51:19.336Z,15.03
2018-12-10T19:53:46.888Z,9.60
2018-12-10T19:56:14.420Z,12.63
2018-12-10T19:58:42.331Z,15.87
2018-12-10T20:01:09.911Z,14.90
2018-12-10T20:03:38.240Z,11.77
2018-12-10T20:06:16.346Z,13.13
2018-12-10T20:08:43.892Z,16.30
2018-12-10T20:11:11.488Z,20.70
2018-12-10T20:13:39.324Z,19.57
2018-12-10T20:16:06.883Z,20.13
2018-12-10T20:18:34.870Z,16.40
2018-12-10T20:21:02.389Z,17.50
2018-12-10T20:23:29.973Z,17.10
2018-12-10T20:25:58.461Z,15.23
2018-12-10T20:28:26.101Z,18.43
2018-12-10T20:30:53.675Z,17.93
2018-12-10T20:33:21.282Z,18.40
2018-12-10T20:35:48.915Z,16.97
2018-12-10T20:38:16.435Z,18.40
2018-12-10T20:40:44.337Z,19.87
2018-12-10T20:43:11.855Z,21.53
2018-12-10T20:45:39.395Z,18.03
2018-12-10T20:48:06.949Z,19.10
2018-12-10T20:50:34.506Z,16.33
2018-12-10T20:53:02.033Z,16.63
2018-12-10T20:55:29.911Z,15.63
2018-12-10T20:57:57.579Z,16.33
2018-12-10T21:00:25.129Z,12.97
2018-12-10T21:02:52.912Z,15.33
2018-12-10T21:05:20.435Z,15.17
2018-12-10T21:07:47.944Z,14.00
2018-12-10T21:10:15.878Z,12.27
2018-12-10T21:12:43.395Z,10.37
2018-12-10T21:15:10.920Z,9.53
2018-12-10T21:17:38.671Z,6.83
2018-12-10T21:20:07.318Z,9.90
2018-12-10T21:22:34.914Z,6.67
2018-12-10T21:25:30.513Z,8.90
2018-12-10T21:27:58.133Z,7.37
2018-12-10T21:30:25.644Z,5.40
2018-12-10T21:32:53.198Z,8.07
2018-12-10T21:35:20.728Z,10.17
2018-12-10T21:37:48.249Z,10.27
2018-12-10T21:40:16.013Z,5.83
2018-12-10T21:42:43.978Z,7.37
2018-12-10T21:45:11.492Z,11.93
2018-12-10T21:47:38.998Z,11.10
2018-12-10T21:50:06.566Z,7.97
2018-12-10T21:52:34.074Z,10.07
2018-12-10T21:55:01.585Z,16.03
2018-12-10T21:57:29.165Z,13.80
2018-12-10T21:59:56.718Z,15.17
2018-12-10T22:02:24.716Z,13.50
2018-12-10T22:04:52.540Z,11.73
2018-12-10T22:07:20.525Z,14.67
2018-12-10T22:09:48.029Z,11.63
2018-12-10T22:12:15.904Z,10.13
2018-12-10T22:14:43.442Z,10.90
2018-12-10T22:17:10.940Z,10.10
2018-12-10T22:19:38.450Z,16.27
2018-12-10T22:22:06.291Z,7.07
2018-12-10T22:24:33.790Z,6.93
2018-12-10T22:27:01.336Z,6.13
2018-12-10T22:29:29.176Z,6.37
2018-12-10T22:31:56.693Z,4.47
2018-12-10T22:34:24.198Z,5.30
2018-12-10T22:36:52.080Z,6.63
2018-12-10T22:39:19.574Z,5.13
2018-12-10T22:41:47.138Z,4.17
2018-12-10T22:44:14.970Z,2.13
2018-12-10T22:46:42.527Z,2.20
2018-12-10T22:49:10.027Z,3.77
2018-12-10T22:51:37.953Z,2.47
2018-12-10T22:54:05.458Z,2.77
2018-12-10T22:56:32.972Z,2.40
2018-12-10T22:59:02.205Z,3.83
2018-12-10T23:01:29.846Z,6.20
2018-12-10T23:03:57.358Z,5.53
2018-12-10T23:06:25.251Z,6.40
2018-12-10T23:08:53.336Z,8.47
2018-12-10T23:11:20.919Z,3.07
2018-12-10T23:13:48.429Z,3.60
2018-12-10T23:16:16.226Z,2.27
2018-12-10T23:18:43.714Z,2.50
2018-12-10T23:21:11.244Z,2.20
2018-12-10T23:23:39.110Z,4.60
2018-12-10T23:26:06.676Z,1.93
2018-12-10T23:28:34.209Z,2.37
2018-12-10T23:31:02.195Z,1.30
2018-12-10T23:33:29.722Z,1.40
2018-12-10T23:35:57.244Z,0.90
2018-12-10T23:38:24.786Z,2.60
2018-12-10T23:40:52.306Z,0.70
2018-12-10T23:43:24.988Z,2.57
2018-12-10T23:45:53.319Z,1.27
2018-12-10T23:50:55.444Z,2.57
2018-12-10T23:53:22.957Z,3.97
2018-12-10T23:55:50.459Z,3.13
2018-12-10T23:58:19.272Z,0.80
